createdAt,value
2023-04-18T00:02:07.217Z,7.64
2023-04-18T00:04:34.226Z,7.63
2023-04-18T00:07:03.010Z,7.63
2023-04-18T00:09:29.557Z,7.54
2023-04-18T00:11:56.182Z,7.56
2023-04-18T00:14:23.152Z,7.48
2023-04-18T00:16:54.289Z,7.41
2023-04-18T00:19:20.823Z,7.33
2023-04-18T00:21:47.329Z,7.31
2023-04-18T00:24:13.995Z,7.27
2023-04-18T00:26:40.607Z,7.24
2023-04-18T00:29:07.080Z,7.18
2023-04-18T00:31:35.875Z,7.20
2023-04-18T00:34:02.488Z,7.18
2023-04-18T00:36:28.947Z,7.17
2023-04-18T00:38:55.532Z,7.18
2023-04-18T00:41:22.240Z,7.18
2023-04-18T00:43:53.708Z,7.16
2023-04-18T00:46:20.374Z,7.11
2023-04-18T00:48:51.613Z,7.03
2023-04-18T00:51:18.200Z,7.00
2023-04-18T00:53:49.416Z,6.93
2023-04-18T00:56:16.166Z,6.84
2023-04-18T00:58:42.706Z,6.82
2023-04-18T01:01:13.400Z,6.76
2023-04-18T01:03:48.063Z,6.73
2023-04-18T01:06:20.080Z,6.70
2023-04-18T01:08:49.158Z,6.62
2023-04-18T01:11:18.084Z,6.58
2023-04-18T01:14:01.569Z,6.64
2023-04-18T01:16:32.793Z,6.59
2023-04-18T01:19:03.903Z,6.58
2023-04-18T01:21:33.794Z,6.56
2023-04-18T01:24:11.527Z,6.54
2023-04-18T01:26:44.864Z,6.50
2023-04-18T01:29:11.836Z,6.48
2023-04-18T01:31:39.978Z,6.48
2023-04-18T01:34:07.072Z,6.45
2023-04-18T01:36:36.607Z,6.41
2023-04-18T01:39:03.545Z,6.37
2023-04-18T01:41:32.883Z,6.33
2023-04-18T01:44:00.336Z,6.32
2023-04-18T01:46:31.925Z,6.34
2023-04-18T01:48:59.195Z,6.35
2023-04-18T01:51:28.241Z,6.31
2023-04-18T01:53:57.080Z,6.30
2023-04-18T01:56:23.749Z,6.24
2023-04-18T01:58:54.961Z,6.20
2023-04-18T02:01:23.855Z,6.14
2023-04-18T02:03:50.812Z,6.15
2023-04-18T02:06:17.573Z,6.13
2023-04-18T02:08:46.308Z,6.12
2023-04-18T02:11:15.278Z,6.05
2023-04-18T02:13:44.257Z,5.96
2023-04-18T02:16:16.437Z,5.91
2023-04-18T02:18:46.954Z,5.88
2023-04-18T02:21:13.390Z,5.84
2023-04-18T02:23:39.853Z,5.79
2023-04-18T02:26:06.519Z,5.78
2023-04-18T02:28:33.063Z,5.75
2023-04-18T02:31:02.125Z,5.75
2023-04-18T02:33:29.159Z,5.71
2023-04-18T02:35:55.856Z,5.65
2023-04-18T02:38:22.416Z,5.61
2023-04-18T02:40:48.904Z,5.56
2023-04-18T02:43:17.928Z,5.53
2023-04-18T02:45:44.476Z,5.50
2023-04-18T02:48:11.042Z,5.46
2023-04-18T02:50:39.970Z,5.41
2023-04-18T02:53:06.531Z,5.38
2023-04-18T02:55:37.964Z,5.35
2023-04-18T02:58:06.596Z,5.32
2023-04-18T03:00:34.745Z,5.28
2023-04-18T03:03:01.585Z,5.30
2023-04-18T03:05:28.789Z,5.32
2023-04-18T03:08:00.202Z,5.26
2023-04-18T03:10:26.642Z,5.22
2023-04-18T03:12:55.507Z,5.18
2023-04-18T03:15:24.663Z,5.14
2023-04-18T03:17:51.468Z,5.14
2023-04-18T03:20:18.202Z,5.13
2023-04-18T03:22:44.766Z,5.10
2023-04-18T03:25:18.570Z,5.06
2023-04-18T03:27:45.153Z,5.00
2023-04-18T03:30:14.350Z,4.94
2023-04-18T03:32:42.152Z,4.93
2023-04-18T03:35:09.412Z,4.88
2023-04-18T03:37:38.088Z,4.85
2023-04-18T03:40:05.477Z,4.83
2023-04-18T03:42:36.771Z,4.77
2023-04-18T03:45:05.616Z,4.75
2023-04-18T03:47:32.154Z,4.74
2023-04-18T03:49:58.705Z,4.69
2023-04-18T03:52:25.354Z,4.66
2023-04-18T03:54:54.317Z,4.65
2023-04-18T03:57:23.035Z,4.71
2023-04-18T03:59:54.263Z,4.79
2023-04-18T04:02:21.035Z,4.83
2023-04-18T04:04:47.696Z,4.91
2023-04-18T04:07:14.363Z,4.96
2023-04-18T04:09:43.111Z,5.03
2023-04-18T04:12:09.635Z,5.08
2023-04-18T04:14:36.181Z,5.11
2023-04-18T04:17:05.616Z,5.15
2023-04-18T04:19:32.097Z,5.21
2023-04-18T04:22:01.105Z,5.23
2023-04-18T04:24:29.045Z,5.26
2023-04-18T04:26:56.284Z,5.26
2023-04-18T04:29:23.800Z,5.28
2023-04-18T04:31:52.814Z,5.32
2023-04-18T04:34:21.863Z,5.34
2023-04-18T04:36:48.666Z,5.34
2023-04-18T04:39:18.730Z,5.38
2023-04-18T04:41:47.079Z,5.39
2023-04-18T04:44:17.523Z,5.41
2023-04-18T04:46:44.899Z,5.44
2023-04-18T04:49:11.915Z,5.45
2023-04-18T04:51:41.683Z,5.46
2023-04-18T04:54:08.174Z,5.44
2023-04-18T04:56:36.821Z,5.47
2023-04-18T04:59:05.969Z,5.49
2023-04-18T05:01:34.484Z,5.51
2023-04-18T05:04:01.179Z,5.51
2023-04-18T05:06:30.575Z,5.51
2023-04-18T05:08:59.435Z,5.54
2023-04-18T05:11:28.296Z,5.57
2023-04-18T05:13:54.804Z,5.59
2023-04-18T05:16:21.321Z,5.62
2023-04-18T05:18:52.375Z,5.65
2023-04-18T05:21:21.332Z,5.68
2023-04-18T05:23:50.600Z,5.72
2023-04-18T05:26:18.713Z,5.77
2023-04-18T05:28:45.367Z,5.82
2023-04-18T05:31:11.865Z,5.84
2023-04-18T05:33:43.103Z,5.88
2023-04-18T05:36:09.632Z,5.92
2023-04-18T05:38:36.058Z,5.96
2023-04-18T05:41:04.760Z,5.98
2023-04-18T05:43:31.348Z,6.01
2023-04-18T05:45:58.063Z,6.06
2023-04-18T05:48:25.182Z,6.09
2023-04-18T05:50:51.675Z,6.10
2023-04-18T05:53:20.381Z,6.11
2023-04-18T05:55:50.123Z,6.16
2023-04-18T05:58:17.792Z,6.20
2023-04-18T06:00:48.057Z,6.23
2023-04-18T06:03:17.383Z,6.24
2023-04-18T06:05:46.306Z,6.30
2023-04-18T06:08:12.809Z,6.32
2023-04-18T06:10:41.600Z,6.34
2023-04-18T06:13:10.651Z,6.38
2023-04-18T06:15:37.195Z,6.41
2023-04-18T06:18:06.269Z,6.47
2023-04-18T06:20:32.803Z,6.51
2023-04-18T06:22:59.260Z,6.61
2023-04-18T06:25:25.982Z,6.66
2023-04-18T06:27:52.546Z,6.76
2023-04-18T06:30:21.876Z,6.81
2023-04-18T06:32:48.502Z,6.85
2023-04-18T06:35:18.049Z,6.97
2023-04-18T06:37:47.387Z,7.09
2023-04-18T06:40:16.234Z,7.21
2023-04-18T06:42:43.483Z,7.27
2023-04-18T06:45:13.423Z,7.34
2023-04-18T06:47:40.560Z,7.45
2023-04-18T06:50:08.146Z,7.42
2023-04-18T06:52:40.490Z,7.43
2023-04-18T06:55:09.962Z,7.49
2023-04-18T06:57:39.704Z,7.63
2023-04-18T07:00:10.432Z,7.69
2023-04-18T07:02:38.909Z,7.67
2023-04-18T07:05:06.399Z,7.71
2023-04-18T07:07:35.667Z,7.81
2023-04-18T07:10:06.425Z,7.82
2023-04-18T07:12:33.801Z,7.76
2023-04-18T07:15:00.336Z,7.71
2023-04-18T07:17:26.910Z,7.75
2023-04-18T07:19:53.667Z,7.78
2023-04-18T07:22:25.525Z,7.74
2023-04-18T07:24:54.329Z,7.80
2023-04-18T07:27:20.870Z,7.93
2023-04-18T07:29:47.366Z,8.01
2023-04-18T07:32:16.153Z,8.08
2023-04-18T07:34:42.735Z,8.15
2023-04-18T07:37:13.483Z,8.28
2023-04-18T07:39:41.344Z,8.37
2023-04-18T07:42:07.895Z,8.63
2023-04-18T07:44:36.085Z,8.88
2023-04-18T07:47:03.380Z,9.48
2023-04-18T07:49:29.998Z,9.43
2023-04-18T07:51:56.507Z,9.36
2023-04-18T07:54:25.569Z,9.73
2023-04-18T07:56:52.096Z,9.88
2023-04-18T07:59:18.584Z,10.81
2023-04-18T08:01:48.332Z,11.13
2023-04-18T08:04:17.459Z,11.44
2023-04-18T08:06:44.119Z,10.92
2023-04-18T08:09:12.018Z,11.21
2023-04-18T08:11:39.099Z,10.87
2023-04-18T08:14:05.646Z,10.83
2023-04-18T08:16:32.182Z,11.67
2023-04-18T08:18:58.670Z,12.48
2023-04-18T08:21:30.523Z,12.00
2023-04-18T08:23:59.304Z,11.19
2023-04-18T08:26:25.975Z,11.05
2023-04-18T08:28:54.714Z,11.16
2023-04-18T08:31:23.735Z,10.92
2023-04-18T08:33:50.472Z,10.55
2023-04-18T08:36:19.303Z,10.31
2023-04-18T08:38:46.676Z,10.23
2023-04-18T08:41:19.555Z,10.20
2023-04-18T08:43:48.718Z,10.07
2023-04-18T08:46:17.573Z,10.22
2023-04-18T08:48:44.586Z,11.27
2023-04-18T08:51:11.401Z,11.89
2023-04-18T08:53:39.274Z,11.90
2023-04-18T08:56:10.396Z,11.30
2023-04-18T08:58:36.967Z,10.95
2023-04-18T09:01:07.298Z,10.70
2023-04-18T09:03:37.523Z,10.79
2023-04-18T09:06:13.622Z,11.09
2023-04-18T09:08:44.354Z,10.86
2023-04-18T09:11:26.106Z,10.71
2023-04-18T09:13:56.499Z,10.65
2023-04-18T09:16:23.773Z,10.88
2023-04-18T09:19:18.015Z,11.24
2023-04-18T09:21:50.549Z,12.17
2023-04-18T09:24:24.928Z,12.69
2023-04-18T09:26:56.033Z,13.07
2023-04-18T09:29:46.192Z,12.40
2023-04-18T09:32:30.642Z,12.30
2023-04-18T09:35:03.918Z,12.00
2023-04-18T09:37:31.464Z,12.23
2023-04-18T09:39:57.932Z,12.26
2023-04-18T09:42:26.752Z,12.31
2023-04-18T09:45:00.767Z,11.92
2023-04-18T09:47:30.834Z,11.80
2023-04-18T09:49:57.428Z,11.51
2023-04-18T09:52:25.989Z,11.45
2023-04-18T09:55:02.089Z,11.47
2023-04-18T09:57:30.431Z,11.35
2023-04-18T10:00:30.342Z,11.32
2023-04-18T10:03:09.698Z,11.04
2023-04-18T10:05:39.470Z,10.93
2023-04-18T10:08:07.342Z,11.05
2023-04-18T10:10:33.946Z,11.06
2023-04-18T10:13:08.431Z,10.95
2023-04-18T10:15:35.113Z,10.88
2023-04-18T10:18:09.038Z,11.22
2023-04-18T10:20:36.070Z,11.99
2023-04-18T10:23:38.961Z,12.02
2023-04-18T10:26:09.948Z,11.78
2023-04-18T10:28:58.624Z,11.61
2023-04-18T10:31:29.652Z,11.52
2023-04-18T10:34:05.668Z,11.42
2023-04-18T10:36:33.323Z,12.09
2023-04-18T10:39:24.584Z,12.55
2023-04-18T10:41:53.858Z,12.88
2023-04-18T10:44:27.511Z,12.79
2023-04-18T10:46:54.024Z,12.79
2023-04-18T10:49:32.870Z,12.64
2023-04-18T10:52:03.347Z,12.73
2023-04-18T10:55:05.583Z,12.71
2023-04-18T10:57:46.056Z,12.42
2023-04-18T11:00:16.044Z,12.61
2023-04-18T11:02:57.917Z,12.50
2023-04-18T11:05:27.822Z,12.29
2023-04-18T11:07:55.047Z,12.03
2023-04-18T11:10:26.258Z,12.11
2023-04-18T11:12:53.658Z,12.29
2023-04-18T11:15:22.662Z,12.51
2023-04-18T11:17:59.570Z,12.47
2023-04-18T11:20:29.176Z,12.31
2023-04-18T11:23:00.680Z,12.53
2023-04-18T11:25:30.219Z,12.36
2023-04-18T11:28:05.231Z,12.49
2023-04-18T11:30:39.256Z,12.39
2023-04-18T11:33:11.608Z,12.28
2023-04-18T11:35:45.770Z,12.87
2023-04-18T11:38:16.043Z,13.20
2023-04-18T11:40:50.054Z,13.45
2023-04-18T11:43:24.566Z,13.93
2023-04-18T11:45:57.338Z,13.67
2023-04-18T11:48:24.902Z,13.88
2023-04-18T11:50:54.333Z,13.85
2023-04-18T11:53:35.962Z,13.27
2023-04-18T11:56:05.780Z,13.12
2023-04-18T11:58:34.006Z,13.07
2023-04-18T12:01:15.162Z,12.80
2023-04-18T12:03:44.178Z,12.71
2023-04-18T12:06:14.446Z,12.66
2023-04-18T12:08:43.387Z,12.61
2023-04-18T12:11:09.913Z,12.71
2023-04-18T12:13:36.392Z,12.69
2023-04-18T12:16:07.739Z,12.59
2023-04-18T12:18:34.480Z,12.46
2023-04-18T12:21:05.953Z,12.40
2023-04-18T12:23:38.951Z,12.37
2023-04-18T12:26:14.717Z,12.44
2023-04-18T12:28:45.742Z,12.49
2023-04-18T12:31:14.790Z,12.46
2023-04-18T12:33:46.166Z,12.67
2023-04-18T12:36:12.684Z,12.63
2023-04-18T12:38:41.385Z,12.78
2023-04-18T12:41:07.990Z,12.80
2023-04-18T12:43:34.618Z,12.68
2023-04-18T12:46:01.204Z,12.61
2023-04-18T12:48:28.457Z,12.74
2023-04-18T12:50:55.012Z,12.56
2023-04-18T12:53:21.513Z,12.49
2023-04-18T12:55:49.023Z,12.31
2023-04-18T12:58:18.559Z,12.31
2023-04-18T13:00:45.218Z,12.28
2023-04-18T13:03:13.437Z,12.34
2023-04-18T13:05:44.898Z,12.42
2023-04-18T13:08:17.995Z,12.26
2023-04-18T13:10:48.274Z,12.20
2023-04-18T13:13:14.963Z,12.29
2023-04-18T13:15:41.550Z,12.35
2023-04-18T13:18:10.640Z,12.36
2023-04-18T13:20:39.631Z,12.37
2023-04-18T13:23:06.118Z,12.55
2023-04-18T13:25:32.742Z,12.56
2023-04-18T13:28:00.749Z,12.61
2023-04-18T13:30:27.728Z,12.58
2023-04-18T13:32:56.740Z,12.63
2023-04-18T13:35:23.701Z,12.68
2023-04-18T13:37:52.763Z,12.61
2023-04-18T13:40:21.612Z,12.73
2023-04-18T13:42:48.049Z,12.89
2023-04-18T13:45:17.225Z,12.98
2023-04-18T13:47:46.265Z,13.04
2023-04-18T13:50:13.121Z,13.46
2023-04-18T13:52:41.916Z,13.95
2023-04-18T13:55:12.466Z,14.40
2023-04-18T13:57:39.189Z,14.80
2023-04-18T14:00:06.618Z,14.66
2023-04-18T14:02:33.413Z,14.29
2023-04-18T14:05:02.776Z,13.97
2023-04-18T14:07:32.432Z,14.07
2023-04-18T14:09:58.977Z,14.16
2023-04-18T14:12:28.064Z,14.07
2023-04-18T14:14:54.552Z,14.07
2023-04-18T14:17:24.034Z,13.84
2023-04-18T14:19:52.944Z,13.61
2023-04-18T14:22:19.444Z,13.54
2023-04-18T14:24:49.073Z,13.66
2023-04-18T14:27:15.769Z,13.57
2023-04-18T14:29:42.296Z,13.58
2023-04-18T14:32:08.773Z,13.56
2023-04-18T14:34:44.720Z,13.61
2023-04-18T14:37:14.618Z,13.51
2023-04-18T14:39:44.491Z,13.78
2023-04-18T14:42:11.030Z,14.10
2023-04-18T14:44:39.803Z,14.15
2023-04-18T14:47:06.509Z,14.16
2023-04-18T14:49:35.334Z,13.94
2023-04-18T14:52:01.811Z,13.90
2023-04-18T14:54:29.261Z,13.73
2023-04-18T14:56:59.586Z,13.83
2023-04-18T14:59:28.011Z,13.94
2023-04-18T15:01:54.589Z,14.18
2023-04-18T15:04:21.614Z,14.34
2023-04-18T15:06:50.640Z,14.41
2023-04-18T15:09:17.143Z,14.34
2023-04-18T15:11:43.672Z,14.60
2023-04-18T15:14:10.663Z,14.82
2023-04-18T15:16:40.862Z,14.73
2023-04-18T15:19:07.500Z,14.17
2023-04-18T15:21:33.968Z,14.12
2023-04-18T15:24:02.699Z,14.32
2023-04-18T15:26:31.070Z,14.62
2023-04-18T15:29:03.436Z,14.56
2023-04-18T15:31:30.874Z,14.35
2023-04-18T15:33:59.841Z,14.43
2023-04-18T15:36:27.718Z,14.63
2023-04-18T15:38:56.561Z,14.65
2023-04-18T15:41:23.291Z,14.72
2023-04-18T15:43:52.764Z,14.71
2023-04-18T15:46:22.030Z,14.80
2023-04-18T15:48:48.567Z,14.82
2023-04-18T15:51:19.966Z,14.88
2023-04-18T15:53:46.572Z,14.91
2023-04-18T15:56:13.796Z,14.94
2023-04-18T15:58:40.313Z,14.82
2023-04-18T16:01:06.979Z,14.88
2023-04-18T16:03:33.916Z,14.88
2023-04-18T16:06:04.491Z,14.79
2023-04-18T16:08:33.091Z,14.61
2023-04-18T16:11:02.930Z,14.60
2023-04-18T16:13:29.589Z,14.51
2023-04-18T16:15:56.175Z,14.39
2023-04-18T16:18:22.760Z,14.25
2023-04-18T16:20:49.557Z,14.09
2023-04-18T16:23:16.036Z,13.98
2023-04-18T16:25:47.645Z,13.95
2023-04-18T16:28:14.204Z,13.97
2023-04-18T16:30:45.008Z,14.00
2023-04-18T16:33:11.606Z,14.05
2023-04-18T16:35:38.638Z,14.16
2023-04-18T16:38:05.107Z,14.20
2023-04-18T16:40:34.989Z,14.20
2023-04-18T16:43:03.933Z,14.21
2023-04-18T16:45:32.836Z,14.32
2023-04-18T16:47:59.356Z,14.29
2023-04-18T16:50:26.436Z,14.34
2023-04-18T16:52:55.022Z,14.40
2023-04-18T16:55:21.595Z,14.43
2023-04-18T16:57:48.117Z,14.19
2023-04-18T17:00:17.236Z,14.02
2023-04-18T17:02:44.260Z,13.92
2023-04-18T17:05:13.244Z,13.75
2023-04-18T17:07:42.096Z,13.64
2023-04-18T17:10:11.856Z,13.60
2023-04-18T17:12:40.805Z,13.54
2023-04-18T17:15:10.974Z,13.44
2023-04-18T17:17:37.541Z,13.39
2023-04-18T17:20:07.003Z,13.39
2023-04-18T17:22:33.474Z,13.40
2023-04-18T17:25:00.058Z,13.49
2023-04-18T17:27:28.133Z,13.60
2023-04-18T17:29:54.871Z,13.62
2023-04-18T17:32:22.578Z,13.64
2023-04-18T17:34:51.649Z,13.63
2023-04-18T17:37:19.581Z,13.63
2023-04-18T17:39:45.994Z,13.58
2023-04-18T17:42:12.563Z,13.48
2023-04-18T17:44:41.771Z,13.36
2023-04-18T17:47:08.310Z,13.30
2023-04-18T17:49:35.094Z,13.21
2023-04-18T17:52:02.406Z,13.14
2023-04-18T17:54:37.810Z,13.07
2023-04-18T17:57:04.474Z,13.03
2023-04-18T17:59:31.163Z,12.99
2023-04-18T18:02:00.087Z,12.95
2023-04-18T18:04:27.434Z,12.90
2023-04-18T18:06:56.058Z,12.85
2023-04-18T18:09:22.736Z,12.79
2023-04-18T18:11:49.256Z,12.70
2023-04-18T18:14:20.473Z,12.62
2023-04-18T18:16:49.403Z,12.62
2023-04-18T18:19:16.859Z,12.55
2023-04-18T18:21:43.850Z,12.50
2023-04-18T18:24:13.114Z,12.43
2023-04-18T18:26:39.672Z,12.41
2023-04-18T18:29:11.581Z,12.33
2023-04-18T18:31:38.992Z,12.29
2023-04-18T18:34:08.290Z,12.27
2023-04-18T18:36:34.795Z,12.20
2023-04-18T18:39:01.290Z,12.18
2023-04-18T18:41:30.073Z,12.11
2023-04-18T18:43:56.599Z,12.01
2023-04-18T18:46:23.357Z,11.92
2023-04-18T18:48:50.411Z,11.86
2023-04-18T18:51:19.376Z,11.79
2023-04-18T18:53:46.664Z,11.72
2023-04-18T18:56:15.726Z,11.66
2023-04-18T18:58:43.766Z,11.61
2023-04-18T19:01:12.695Z,11.57
2023-04-18T19:03:39.312Z,11.50
2023-04-18T19:06:07.305Z,11.42
2023-04-18T19:08:36.104Z,11.30
2023-04-18T19:11:02.684Z,11.28
2023-04-18T19:13:31.552Z,11.22
2023-04-18T19:15:58.285Z,11.15
2023-04-18T19:18:29.677Z,11.15
2023-04-18T19:20:58.566Z,11.23
2023-04-18T19:23:27.817Z,11.26
2023-04-18T19:25:59.411Z,11.24
2023-04-18T19:28:26.181Z,11.23
2023-04-18T19:30:53.145Z,11.26
2023-04-18T19:33:20.507Z,11.21
2023-04-18T19:35:49.342Z,11.16
2023-04-18T19:38:15.999Z,11.11
2023-04-18T19:40:44.897Z,11.07
2023-04-18T19:43:13.693Z,11.02
2023-04-18T19:45:40.291Z,11.00
2023-04-18T19:48:06.969Z,10.98
2023-04-18T19:50:33.584Z,10.89
2023-04-18T19:53:02.396Z,10.83
2023-04-18T19:55:28.993Z,10.80
2023-04-18T19:57:58.596Z,10.78
2023-04-18T20:00:25.595Z,10.72
2023-04-18T20:02:52.403Z,10.70
2023-04-18T20:05:23.954Z,10.66
2023-04-18T20:07:50.814Z,10.64
2023-04-18T20:10:20.994Z,10.60
2023-04-18T20:12:49.862Z,10.56
2023-04-18T20:15:18.934Z,10.54
2023-04-18T20:17:47.913Z,10.50
2023-04-18T20:20:14.543Z,10.46
2023-04-18T20:22:42.998Z,10.44
2023-04-18T20:25:09.615Z,10.42
2023-04-18T20:27:36.139Z,10.37
2023-04-18T20:30:02.690Z,10.35
2023-04-18T20:32:34.683Z,10.30
2023-04-18T20:35:04.431Z,10.24
2023-04-18T20:37:36.754Z,10.19
2023-04-18T20:40:08.777Z,10.11
2023-04-18T20:42:39.257Z,10.09
2023-04-18T20:45:06.464Z,10.08
2023-04-18T20:47:33.854Z,10.05
2023-04-18T20:50:05.115Z,9.99
2023-04-18T20:52:31.639Z,10.01
2023-04-18T20:55:00.592Z,9.98
2023-04-18T20:57:27.401Z,9.93
2023-04-18T20:59:58.491Z,9.91
2023-04-18T21:02:27.690Z,9.87
2023-04-18T21:04:54.736Z,9.86
2023-04-18T21:07:21.266Z,9.85
2023-04-18T21:09:50.235Z,9.84
2023-04-18T21:12:16.772Z,9.83
2023-04-18T21:14:45.614Z,9.80
2023-04-18T21:17:17.393Z,9.75
2023-04-18T21:19:48.034Z,9.74
2023-04-18T21:22:15.908Z,9.72
2023-04-18T21:24:43.359Z,9.72
2023-04-18T21:27:13.138Z,9.68
2023-04-18T21:29:41.057Z,9.70
2023-04-18T21:32:09.877Z,9.66
2023-04-18T21:34:38.942Z,9.62
2023-04-18T21:37:05.485Z,9.60
2023-04-18T21:39:34.168Z,9.56
2023-04-18T21:42:03.512Z,9.56
2023-04-18T21:44:32.393Z,9.51
2023-04-18T21:47:01.337Z,9.49
2023-04-18T21:49:27.835Z,9.47
2023-04-18T21:51:55.018Z,9.41
2023-04-18T21:54:23.989Z,9.39
2023-04-18T21:56:50.557Z,9.39
2023-04-18T21:59:19.301Z,9.40
2023-04-18T22:01:48.221Z,9.36
2023-04-18T22:04:20.941Z,9.37
2023-04-18T22:06:47.682Z,9.32
2023-04-18T22:09:19.314Z,9.27
2023-04-18T22:11:46.017Z,9.24
2023-04-18T22:14:14.524Z,9.17
2023-04-18T22:16:41.328Z,9.14
2023-04-18T22:19:09.059Z,9.14
2023-04-18T22:21:35.549Z,9.13
2023-04-18T22:24:02.017Z,9.12
2023-04-18T22:26:28.672Z,9.08
2023-04-18T22:28:55.164Z,9.05
2023-04-18T22:31:21.658Z,9.03
2023-04-18T22:33:48.238Z,8.99
2023-04-18T22:36:14.691Z,8.99
2023-04-18T22:38:43.561Z,8.99
2023-04-18T22:41:10.017Z,8.95
2023-04-18T22:43:36.464Z,8.94
2023-04-18T22:46:05.283Z,8.92
2023-04-18T22:48:35.137Z,8.85
2023-04-18T22:51:06.776Z,8.83
2023-04-18T22:53:33.251Z,8.79
2023-04-18T22:55:59.714Z,8.74
2023-04-18T22:58:29.762Z,8.74
2023-04-18T23:01:01.498Z,8.69
2023-04-18T23:03:31.059Z,8.73
2023-04-18T23:05:57.592Z,8.72
2023-04-18T23:08:27.860Z,8.67
2023-04-18T23:10:56.666Z,8.63
2023-04-18T23:13:25.372Z,8.63
2023-04-18T23:15:51.963Z,8.62
2023-04-18T23:18:18.806Z,8.58
2023-04-18T23:20:45.868Z,8.54
2023-04-18T23:23:14.898Z,8.52
2023-04-18T23:25:46.176Z,8.51
2023-04-18T23:28:13.600Z,8.52
2023-04-18T23:30:45.064Z,8.56
2023-04-18T23:33:13.720Z,8.61
2023-04-18T23:35:40.220Z,8.62
2023-04-18T23:38:06.674Z,8.65
2023-04-18T23:40:35.888Z,8.65
2023-04-18T23:43:02.479Z,8.64
2023-04-18T23:45:28.957Z,8.63
2023-04-18T23:47:55.681Z,8.63
2023-04-18T23:50:24.678Z,8.67
2023-04-18T23:52:51.374Z,8.65
2023-04-18T23:55:20.396Z,8.60
2023-04-18T23:57:46.875Z,8.57
